createdAt,value
2022-12-16T00:01:19.933Z,16.20
2022-12-16T00:03:51.797Z,16.20
2022-12-16T00:06:21.265Z,16.20
2022-12-16T00:08:49.981Z,16.20
2022-12-16T00:11:20.460Z,16.20
2022-12-16T00:13:49.396Z,16.20
2022-12-16T00:16:20.199Z,16.10
2022-12-16T00:18:49.550Z,16.10
2022-12-16T00:21:20.921Z,16.10
2022-12-16T00:23:49.779Z,16.10
2022-12-16T00:26:18.180Z,16.10
2022-12-16T00:28:46.953Z,16.10
2022-12-16T00:31:16.219Z,16.00
2022-12-16T00:33:45.801Z,16.00
2022-12-16T00:36:14.290Z,16.00
2022-12-16T00:38:43.101Z,16.00
2022-12-16T00:41:11.580Z,16.00
2022-12-16T00:43:40.672Z,16.00
2022-12-16T00:46:09.271Z,16.00
2022-12-16T00:48:39.201Z,16.00
2022-12-16T00:51:07.650Z,16.00
2022-12-16T00:53:36.992Z,15.90
2022-12-16T00:56:08.057Z,15.90
2022-12-16T00:58:37.771Z,15.90
2022-12-16T01:01:08.353Z,15.90
2022-12-16T01:03:37.792Z,15.90
2022-12-16T01:06:15.326Z,15.90
2022-12-16T01:08:51.231Z,15.90
2022-12-16T01:11:20.823Z,15.90
2022-12-16T01:13:52.768Z,15.80
2022-12-16T01:16:23.778Z,15.80
2022-12-16T01:18:53.670Z,15.80
2022-12-16T01:21:23.960Z,15.80
2022-12-16T01:23:53.048Z,15.80
2022-12-16T01:26:23.659Z,15.80
2022-12-16T01:28:52.550Z,15.80
2022-12-16T01:31:21.350Z,15.80
2022-12-16T01:33:51.351Z,15.80
2022-12-16T01:36:20.240Z,15.80
2022-12-16T01:38:49.101Z,15.70
2022-12-16T01:41:17.723Z,15.70
2022-12-16T01:43:46.707Z,15.70
2022-12-16T01:46:15.022Z,15.70
2022-12-16T01:48:59.590Z,15.80
2022-12-16T01:51:41.282Z,15.70
2022-12-16T01:57:24.881Z,15.70
2022-12-16T01:59:55.220Z,15.70
2022-12-16T02:02:24.205Z,15.70
2022-12-16T02:05:11.891Z,15.70
2022-12-16T02:07:40.361Z,15.70
2022-12-16T02:13:59.549Z,15.60
2022-12-16T02:16:52.565Z,15.60
2022-12-16T02:19:35.112Z,15.60
2022-12-16T02:22:35.761Z,15.60
2022-12-16T02:25:40.842Z,15.60
2022-12-16T02:32:25.092Z,15.60
2022-12-16T02:35:26.153Z,15.60
2022-12-16T02:38:23.604Z,15.60
2022-12-16T02:41:18.281Z,15.60
2022-12-16T02:46:59.420Z,15.60
2022-12-16T02:49:28.740Z,15.50
2022-12-16T02:51:58.291Z,15.50
2022-12-16T02:54:28.382Z,15.50
2022-12-16T02:57:06.474Z,15.50
2022-12-16T03:00:08.399Z,15.50
2022-12-16T03:03:02.438Z,15.50
2022-12-16T03:05:48.368Z,15.50
2022-12-16T03:08:46.000Z,15.50
2022-12-16T03:11:15.853Z,15.40
2022-12-16T03:13:50.443Z,15.50
2022-12-16T03:16:22.482Z,15.50
2022-12-16T03:22:00.964Z,15.40
2022-12-16T03:24:29.672Z,15.40
2022-12-16T03:27:46.411Z,15.40
2022-12-16T03:30:18.282Z,15.40
2022-12-16T03:33:08.090Z,15.40
2022-12-16T03:36:20.473Z,15.40
2022-12-16T03:38:50.029Z,15.40
2022-12-16T03:41:18.960Z,15.30
2022-12-16T03:43:48.541Z,15.40
2022-12-16T03:46:17.518Z,15.30
2022-12-16T03:48:55.451Z,15.30
2022-12-16T03:54:28.953Z,15.30
2022-12-16T03:56:57.662Z,15.30
2022-12-16T03:59:26.221Z,15.30
2022-12-16T04:04:24.579Z,15.30
2022-12-16T04:07:13.278Z,15.40
2022-12-16T04:09:41.799Z,15.50
2022-12-16T04:12:29.305Z,15.60
2022-12-16T04:15:16.222Z,15.70
2022-12-16T04:18:03.624Z,15.80
2022-12-16T04:20:52.774Z,15.80
2022-12-16T04:23:44.005Z,15.90
2022-12-16T04:26:27.593Z,15.80
2022-12-16T04:28:56.332Z,15.90
2022-12-16T04:34:12.555Z,15.80
2022-12-16T04:36:59.663Z,15.90
2022-12-16T04:39:47.116Z,15.90
2022-12-16T04:45:58.246Z,15.90
2022-12-16T04:48:45.642Z,16.00
2022-12-16T04:51:32.464Z,16.00
2022-12-16T04:54:19.941Z,16.00
2022-12-16T04:57:06.627Z,16.10
2022-12-16T05:00:01.153Z,16.20
2022-12-16T05:02:48.177Z,16.30
2022-12-16T05:05:37.225Z,16.40
2022-12-16T05:08:24.597Z,16.50
2022-12-16T05:11:11.733Z,16.50
2022-12-16T05:13:58.563Z,16.60
2022-12-16T05:16:45.833Z,16.60
2022-12-16T05:19:32.858Z,16.70
2022-12-16T05:22:21.484Z,16.80
2022-12-16T05:25:08.413Z,16.90
2022-12-16T05:27:55.892Z,17.00
2022-12-16T05:34:06.333Z,17.10
2022-12-16T05:36:53.934Z,17.20
2022-12-16T05:39:41.253Z,17.20
2022-12-16T05:42:28.473Z,17.20
2022-12-16T05:45:15.412Z,17.30
2022-12-16T05:48:03.375Z,17.30
2022-12-16T05:50:50.204Z,17.40
2022-12-16T05:53:37.356Z,17.50
2022-12-16T05:56:24.737Z,17.50
2022-12-16T05:59:12.068Z,17.60
2022-12-16T06:01:58.860Z,17.60
2022-12-16T06:04:46.402Z,17.60
2022-12-16T06:07:33.122Z,17.70
2022-12-16T06:10:20.536Z,17.70
2022-12-16T06:13:07.148Z,17.80
2022-12-16T06:15:54.401Z,17.80
2022-12-16T06:18:41.561Z,17.80
2022-12-16T06:21:28.662Z,17.80
2022-12-16T06:24:15.401Z,17.80
2022-12-16T06:27:03.463Z,17.70
2022-12-16T06:29:50.405Z,17.60
2022-12-16T06:32:37.622Z,17.60
2022-12-16T06:35:25.011Z,17.60
2022-12-16T06:38:12.004Z,17.50
2022-12-16T06:40:58.876Z,17.40
2022-12-16T06:43:46.339Z,17.40
2022-12-16T06:46:33.251Z,17.30
2022-12-16T06:49:21.614Z,17.30
2022-12-16T06:52:08.561Z,17.30
2022-12-16T06:54:56.076Z,17.20
2022-12-16T06:57:43.028Z,17.20
2022-12-16T07:00:31.542Z,17.10
2022-12-16T07:03:18.481Z,17.10
2022-12-16T07:06:06.020Z,17.00
2022-12-16T07:08:53.633Z,17.00
2022-12-16T07:11:41.028Z,17.00
2022-12-16T07:17:17.518Z,16.90
2022-12-16T07:51:04.566Z,16.90
2022-12-16T07:53:51.324Z,16.50
2022-12-16T07:56:38.957Z,16.40
2022-12-16T07:59:25.709Z,16.40
2022-12-16T08:02:14.037Z,16.40
2022-12-16T08:05:01.099Z,16.30
2022-12-16T08:07:48.304Z,16.30
2022-12-16T08:10:35.158Z,16.30
2022-12-16T08:13:32.259Z,16.20
2022-12-16T08:16:19.272Z,16.20
2022-12-16T08:19:10.949Z,16.20
2022-12-16T08:21:58.148Z,16.20
2022-12-16T08:24:51.596Z,16.20
2022-12-16T08:27:41.058Z,16.10
2022-12-16T08:30:29.408Z,16.10
2022-12-16T08:33:19.703Z,16.10
2022-12-16T08:36:18.479Z,16.10
2022-12-16T08:39:05.247Z,16.00
2022-12-16T08:41:52.488Z,16.00
2022-12-16T08:44:39.509Z,16.00
2022-12-16T08:47:26.801Z,16.00
2022-12-16T08:50:13.559Z,16.00
2022-12-16T08:53:02.000Z,15.90
2022-12-16T08:55:48.909Z,15.90
2022-12-16T08:58:37.197Z,15.90
2022-12-16T09:01:24.314Z,15.90
2022-12-16T09:04:11.676Z,15.90
2022-12-16T09:06:58.998Z,15.90
2022-12-16T09:09:46.487Z,15.80
2022-12-16T09:12:33.509Z,15.80
2022-12-16T09:15:20.663Z,15.80
2022-12-16T09:18:15.532Z,15.80
2022-12-16T09:21:04.009Z,15.80
2022-12-16T09:23:51.197Z,15.80
2022-12-16T09:26:38.967Z,15.70
2022-12-16T09:29:25.878Z,15.70
2022-12-16T09:32:13.043Z,15.70
2022-12-16T09:34:59.839Z,15.70
2022-12-16T09:37:46.922Z,15.70
2022-12-16T09:40:35.186Z,15.60
2022-12-16T09:43:45.487Z,15.70
2022-12-16T09:47:25.778Z,15.70
2022-12-16T09:50:14.381Z,15.60
2022-12-16T09:53:07.590Z,15.70
2022-12-16T09:56:01.895Z,15.60
2022-12-16T09:58:54.378Z,15.60
2022-12-16T10:01:42.840Z,15.60
2022-12-16T10:04:30.130Z,15.60
2022-12-16T10:07:18.549Z,15.60
2022-12-16T10:10:39.360Z,15.60
2022-12-16T10:13:56.329Z,15.60
2022-12-16T10:17:10.750Z,15.60
2022-12-16T10:20:15.532Z,15.60
2022-12-16T10:23:14.399Z,15.60
2022-12-16T10:26:27.161Z,15.60
2022-12-16T10:29:45.802Z,15.50
2022-12-16T10:33:00.158Z,15.50
2022-12-16T10:35:52.287Z,15.50
2022-12-16T10:38:59.031Z,15.50
2022-12-16T10:41:55.130Z,15.50
2022-12-16T10:45:03.238Z,15.50
2022-12-16T10:47:50.210Z,15.60
2022-12-16T10:50:37.627Z,15.70
2022-12-16T10:53:35.772Z,15.70
2022-12-16T10:57:02.712Z,15.80
2022-12-16T10:59:57.991Z,15.90
2022-12-16T11:02:47.098Z,16.00
2022-12-16T11:05:52.058Z,16.10
2022-12-16T11:09:00.738Z,16.20
2022-12-16T11:11:49.151Z,16.40
2022-12-16T11:15:27.542Z,16.50
2022-12-16T11:18:22.315Z,16.50
2022-12-16T11:21:36.075Z,16.60
2022-12-16T11:24:29.062Z,16.70
2022-12-16T11:27:22.306Z,16.80
2022-12-16T11:30:33.120Z,16.80
2022-12-16T11:33:40.445Z,16.90
2022-12-16T12:49:00.738Z,17.00
2022-12-16T12:51:51.137Z,17.70
2022-12-16T12:57:57.156Z,17.70
2022-12-16T13:00:44.967Z,17.60
2022-12-16T13:03:50.381Z,17.50
2022-12-16T13:06:37.657Z,17.50
2022-12-16T13:18:49.901Z,17.40
2022-12-16T13:21:56.733Z,17.20
2022-12-16T14:41:43.048Z,17.10
2022-12-16T14:44:42.520Z,16.20
2022-12-16T14:47:38.260Z,16.20
2022-12-16T15:08:30.651Z,16.20
2022-12-16T15:11:17.940Z,16.00
2022-12-16T15:31:04.006Z,16.00
2022-12-16T15:33:54.298Z,15.90
2022-12-16T15:36:50.589Z,15.90
2022-12-16T15:42:56.583Z,15.90
2022-12-16T15:45:49.259Z,15.90
2022-12-16T15:48:44.928Z,15.90
2022-12-16T15:52:08.285Z,15.80
2022-12-16T15:55:10.676Z,15.80
2022-12-16T15:57:58.969Z,15.80
2022-12-16T16:00:50.444Z,15.80
2022-12-16T16:03:46.734Z,15.80
2022-12-16T16:06:45.295Z,15.80
2022-12-16T16:09:47.545Z,15.70
2022-12-16T16:12:37.063Z,15.70
2022-12-16T16:46:57.993Z,15.80
2022-12-16T16:49:53.165Z,16.80
2022-12-16T17:21:13.820Z,16.90
2022-12-16T17:24:00.893Z,17.60
2022-12-16T17:26:47.978Z,17.70
2022-12-16T17:29:42.363Z,17.70
2022-12-16T17:32:30.125Z,17.80
2022-12-16T17:35:17.123Z,17.80
2022-12-16T17:38:04.328Z,17.90
2022-12-16T17:40:51.230Z,18.10
2022-12-16T17:43:39.087Z,18.10
2022-12-16T17:46:29.180Z,18.20
